createdAt,value
2017-10-03T00:00:10.882Z,4.47
2017-10-03T00:02:38.852Z,4.20
2017-10-03T00:05:06.756Z,4.00
2017-10-03T00:07:34.779Z,5.25
2017-10-03T00:10:02.682Z,4.20
2017-10-03T00:12:30.663Z,4.37
2017-10-03T00:14:58.578Z,4.55
2017-10-03T00:17:27.325Z,3.58
2017-10-03T00:19:55.249Z,4.60
2017-10-03T00:22:23.206Z,3.30
2017-10-03T00:24:51.118Z,3.92
2017-10-03T00:27:19.118Z,3.28
2017-10-03T00:29:47.058Z,4.45
2017-10-03T00:32:15.076Z,3.35
2017-10-03T00:34:42.997Z,3.25
2017-10-03T00:37:11.065Z,4.18
2017-10-03T00:39:39.013Z,3.55
2017-10-03T00:42:07.005Z,3.55
2017-10-03T00:44:35.126Z,3.45
2017-10-03T00:47:03.103Z,3.37
2017-10-03T00:49:31.032Z,3.62
2017-10-03T00:51:59.778Z,2.95
2017-10-03T00:54:27.759Z,2.80
2017-10-03T00:56:55.769Z,3.70
2017-10-03T00:59:23.853Z,3.28
2017-10-03T01:01:51.843Z,3.78
2017-10-03T01:04:19.821Z,2.65
2017-10-03T01:06:47.907Z,3.05
2017-10-03T01:09:15.884Z,2.37
2017-10-03T01:11:43.856Z,2.87
2017-10-03T01:14:11.822Z,3.62
2017-10-03T01:16:39.732Z,2.85
2017-10-03T01:19:07.725Z,2.45
2017-10-03T01:21:35.672Z,2.65
2017-10-03T01:24:03.690Z,2.60
2017-10-03T01:26:31.633Z,2.95
2017-10-03T01:28:59.627Z,3.25
2017-10-03T01:31:27.520Z,3.47
2017-10-03T01:33:55.465Z,2.72
2017-10-03T01:36:23.433Z,3.15
2017-10-03T01:38:51.401Z,2.62
2017-10-03T01:41:19.285Z,2.75
2017-10-03T01:43:48.016Z,3.42
2017-10-03T01:46:15.942Z,3.33
2017-10-03T01:48:43.886Z,3.15
2017-10-03T01:51:12.541Z,2.50
2017-10-03T01:53:40.488Z,2.60
2017-10-03T01:56:08.422Z,2.22
2017-10-03T01:58:37.425Z,3.90
2017-10-03T02:01:05.441Z,3.15
2017-10-03T02:03:33.376Z,2.97
2017-10-03T02:06:01.375Z,2.10
2017-10-03T02:08:29.329Z,2.87
2017-10-03T02:10:57.276Z,2.90
2017-10-03T02:13:25.193Z,2.47
2017-10-03T02:15:53.139Z,2.37
2017-10-03T02:18:21.103Z,2.80
2017-10-03T02:20:49.114Z,2.85
2017-10-03T02:23:17.068Z,2.75
2017-10-03T02:25:45.061Z,2.20
2017-10-03T02:28:13.023Z,2.45
2017-10-03T02:30:40.971Z,2.60
2017-10-03T02:33:08.886Z,2.70
2017-10-03T02:35:36.846Z,2.40
2017-10-03T02:38:04.768Z,2.50
2017-10-03T02:40:32.721Z,2.80
2017-10-03T02:43:00.612Z,2.25
2017-10-03T02:45:28.589Z,2.40
2017-10-03T02:47:56.504Z,3.10
2017-10-03T02:50:24.450Z,3.25
2017-10-03T02:52:52.341Z,2.90
2017-10-03T02:55:20.283Z,3.15
2017-10-03T02:57:48.358Z,3.15
2017-10-03T03:00:16.314Z,3.08
2017-10-03T03:02:44.213Z,2.75
2017-10-03T03:05:12.936Z,2.72
2017-10-03T03:07:40.832Z,1.85
2017-10-03T03:10:08.735Z,3.30
2017-10-03T03:12:37.454Z,3.10
2017-10-03T03:15:05.359Z,2.80
2017-10-03T03:17:33.315Z,3.72
2017-10-03T03:20:01.222Z,2.70
2017-10-03T03:22:29.184Z,3.33
2017-10-03T03:24:57.084Z,2.60
2017-10-03T03:27:26.224Z,4.10
2017-10-03T03:29:54.175Z,2.70
2017-10-03T03:32:22.105Z,3.85
2017-10-03T03:34:50.064Z,3.67
2017-10-03T03:37:18.024Z,4.30
2017-10-03T03:39:45.933Z,3.53
2017-10-03T03:42:13.891Z,3.78
2017-10-03T03:44:41.798Z,4.25
2017-10-03T03:47:09.756Z,3.55
2017-10-03T03:49:37.667Z,4.47
2017-10-03T03:52:05.607Z,2.60
2017-10-03T03:54:33.588Z,3.08
2017-10-03T03:57:01.586Z,4.25
2017-10-03T03:59:29.518Z,4.40
2017-10-03T04:01:57.478Z,3.75
2017-10-03T04:04:25.561Z,3.35
2017-10-03T04:06:53.567Z,3.90
2017-10-03T04:09:21.473Z,3.70
2017-10-03T04:11:49.373Z,3.85
2017-10-03T04:14:17.346Z,3.87
2017-10-03T04:16:45.259Z,5.07
2017-10-03T04:19:13.245Z,4.18
2017-10-03T04:21:42.636Z,4.75
2017-10-03T04:24:12.450Z,5.32
2017-10-03T04:26:43.159Z,4.90
2017-10-03T04:29:13.802Z,5.43
2017-10-03T04:31:43.242Z,4.57
2017-10-03T04:34:12.654Z,5.80
2017-10-03T04:36:41.892Z,4.28
2017-10-03T04:39:11.164Z,6.07
2017-10-03T04:41:40.285Z,6.62
2017-10-03T04:44:09.539Z,5.12
2017-10-03T04:46:38.299Z,5.87
2017-10-03T04:49:06.261Z,5.70
2017-10-03T04:51:34.460Z,6.07
2017-10-03T04:54:02.426Z,5.85
2017-10-03T04:56:30.348Z,5.85
2017-10-03T04:58:58.327Z,5.75
2017-10-03T05:01:26.227Z,5.05
2017-10-03T05:03:54.955Z,4.62
2017-10-03T05:06:22.898Z,4.80
2017-10-03T05:08:51.625Z,4.62
2017-10-03T05:11:19.533Z,5.15
2017-10-03T05:13:47.486Z,4.80
2017-10-03T05:16:15.423Z,4.80
2017-10-03T05:18:43.404Z,4.05
2017-10-03T05:21:11.305Z,4.32
2017-10-03T05:23:39.228Z,4.30
2017-10-03T05:26:07.191Z,4.40
2017-10-03T05:28:35.246Z,4.20
2017-10-03T05:31:03.970Z,3.90
2017-10-03T05:33:31.898Z,4.37
2017-10-03T05:36:00.629Z,5.03
2017-10-03T05:38:28.546Z,5.12
2017-10-03T05:40:57.323Z,7.30
2017-10-03T05:43:25.302Z,8.82
2017-10-03T05:45:53.293Z,11.60
2017-10-03T05:48:21.989Z,10.38
2017-10-03T05:50:49.966Z,12.70
2017-10-03T05:53:17.892Z,13.60
2017-10-03T05:55:45.887Z,13.70
2017-10-03T05:58:26.462Z,16.48
2017-10-03T06:00:54.451Z,15.40
2017-10-03T06:03:22.376Z,15.68
2017-10-03T06:05:50.362Z,17.35
2017-10-03T06:08:18.336Z,16.40
2017-10-03T06:10:47.091Z,16.02
2017-10-03T06:13:15.048Z,16.90
2017-10-03T06:15:43.026Z,14.98
2017-10-03T06:18:10.948Z,14.85
2017-10-03T06:20:38.941Z,16.55
2017-10-03T06:23:07.656Z,16.40
2017-10-03T06:25:35.626Z,16.05
2017-10-03T06:28:03.750Z,14.52
2017-10-03T06:30:31.735Z,16.90
2017-10-03T06:32:59.657Z,15.60
2017-10-03T06:35:27.615Z,14.63
2017-10-03T06:37:55.581Z,16.75
2017-10-03T06:40:23.514Z,16.02
2017-10-03T06:42:51.544Z,15.40
2017-10-03T06:45:20.231Z,17.27
2017-10-03T06:47:48.958Z,18.25
2017-10-03T06:50:16.857Z,16.60
2017-10-03T06:52:44.830Z,16.45
2017-10-03T06:55:12.744Z,15.73
2017-10-03T06:57:40.707Z,15.77
2017-10-03T07:00:08.652Z,18.10
2017-10-03T07:02:36.613Z,17.73
2017-10-03T07:05:04.536Z,17.42
2017-10-03T07:07:32.468Z,17.20
2017-10-03T07:10:00.384Z,15.48
2017-10-03T07:12:28.333Z,15.05
2017-10-03T07:14:56.281Z,15.10
2017-10-03T07:17:24.303Z,15.65
2017-10-03T07:19:52.231Z,13.73
2017-10-03T07:22:20.188Z,21.52
2017-10-03T07:24:48.115Z,13.35
2017-10-03T07:27:16.089Z,12.60
2017-10-03T07:29:44.007Z,12.25
2017-10-03T07:32:12.740Z,14.85
2017-10-03T07:34:40.663Z,12.35
2017-10-03T07:37:08.651Z,12.35
2017-10-03T07:39:36.585Z,10.63
2017-10-03T07:42:05.376Z,10.98
2017-10-03T07:44:33.336Z,10.70
2017-10-03T07:47:01.328Z,11.48
2017-10-03T07:49:30.051Z,13.13
2017-10-03T07:51:58.062Z,11.18
2017-10-03T07:54:26.040Z,11.35
2017-10-03T07:56:53.939Z,10.70
2017-10-03T07:59:21.907Z,11.70
2017-10-03T08:01:49.831Z,11.12
2017-10-03T08:04:17.808Z,12.50
2017-10-03T08:06:45.723Z,11.63
2017-10-03T08:09:13.690Z,11.15
2017-10-03T08:11:41.621Z,10.80
2017-10-03T08:14:09.593Z,11.55
2017-10-03T08:16:37.504Z,10.90
2017-10-03T08:19:05.528Z,11.90
2017-10-03T08:21:33.447Z,12.05
2017-10-03T08:24:01.427Z,12.80
2017-10-03T08:26:29.373Z,12.15
2017-10-03T08:28:58.555Z,13.18
2017-10-03T08:31:28.832Z,10.77
2017-10-03T08:33:57.346Z,11.88
2017-10-03T08:36:25.246Z,11.82
2017-10-03T08:38:58.012Z,12.40
2017-10-03T08:41:26.700Z,14.57
2017-10-03T08:43:54.721Z,11.63
2017-10-03T08:46:22.634Z,12.75
2017-10-03T08:48:50.626Z,21.12
2017-10-03T08:51:19.354Z,26.37
2017-10-03T08:53:47.375Z,11.30
2017-10-03T08:56:15.337Z,10.63
2017-10-03T08:58:44.059Z,11.98
2017-10-03T09:01:12.037Z,10.68
2017-10-03T09:03:39.989Z,10.25
2017-10-03T09:06:07.978Z,8.95
2017-10-03T09:08:36.078Z,10.50
2017-10-03T09:11:04.085Z,9.52
2017-10-03T09:13:32.933Z,9.82
2017-10-03T09:16:00.971Z,9.27
2017-10-03T09:18:28.908Z,9.88
2017-10-03T09:20:57.727Z,9.95
2017-10-03T09:23:25.672Z,8.38
2017-10-03T09:25:53.737Z,9.25
2017-10-03T09:28:21.756Z,9.35
2017-10-03T09:30:49.774Z,8.07
2017-10-03T09:33:21.607Z,7.50
2017-10-03T09:35:49.678Z,7.15
2017-10-03T09:38:17.702Z,6.60
2017-10-03T09:40:46.217Z,7.37
2017-10-03T09:43:14.279Z,7.30
2017-10-03T09:45:42.257Z,6.23
2017-10-03T09:48:10.537Z,6.77
2017-10-03T09:50:38.537Z,5.50
2017-10-03T09:53:06.441Z,5.50
2017-10-03T09:55:34.659Z,4.90
2017-10-03T09:58:02.707Z,6.57
2017-10-03T10:00:30.645Z,6.47
2017-10-03T10:02:58.618Z,5.57
2017-10-03T10:05:26.584Z,6.77
2017-10-03T10:07:54.571Z,6.97
2017-10-03T10:10:22.508Z,6.67
2017-10-03T10:12:51.450Z,7.33
2017-10-03T10:15:19.382Z,6.25
2017-10-03T10:17:47.350Z,6.87
2017-10-03T10:20:15.295Z,5.82
2017-10-03T10:22:43.327Z,5.45
2017-10-03T10:25:11.268Z,5.90
2017-10-03T10:27:42.111Z,6.37
2017-10-03T10:30:10.058Z,5.53
2017-10-03T10:32:38.032Z,6.10
2017-10-03T10:35:05.938Z,5.70
2017-10-03T10:37:33.922Z,4.60
2017-10-03T10:40:01.867Z,5.10
2017-10-03T10:42:30.665Z,5.93
2017-10-03T10:44:58.578Z,4.40
2017-10-03T10:47:26.571Z,5.20
2017-10-03T10:49:54.493Z,4.50
2017-10-03T10:52:22.850Z,4.77
2017-10-03T10:54:50.876Z,4.87
2017-10-03T10:57:18.918Z,5.27
2017-10-03T10:59:46.912Z,3.80
2017-10-03T11:02:15.179Z,4.03
2017-10-03T11:04:43.525Z,3.43
2017-10-03T11:07:11.890Z,3.87
2017-10-03T11:09:41.119Z,3.63
2017-10-03T11:12:09.573Z,3.97
2017-10-03T11:14:38.445Z,3.73
2017-10-03T11:17:15.012Z,3.57
2017-10-03T11:19:43.096Z,3.03
2017-10-03T11:22:11.390Z,2.70
2017-10-03T11:24:46.652Z,3.40
2017-10-03T11:27:14.645Z,3.23
2017-10-03T11:29:42.796Z,2.93
2017-10-03T11:32:21.188Z,2.47
2017-10-03T11:34:58.967Z,3.40
2017-10-03T11:37:39.274Z,2.43
2017-10-03T11:43:02.530Z,2.43
2017-10-03T11:45:36.933Z,2.80
2017-10-03T11:48:08.826Z,2.57
2017-10-03T11:50:41.979Z,2.37
2017-10-03T11:53:10.105Z,2.87
2017-10-03T11:55:38.094Z,3.30
2017-10-03T11:58:06.320Z,3.20
2017-10-03T12:00:34.315Z,2.83
2017-10-03T12:03:02.246Z,2.23
2017-10-03T12:05:32.622Z,2.97
2017-10-03T12:08:00.542Z,2.73
2017-10-03T12:10:28.618Z,2.90
2017-10-03T12:12:56.513Z,2.37
2017-10-03T12:15:27.733Z,2.90
2017-10-03T12:17:55.634Z,2.43
2017-10-03T12:20:23.604Z,2.83
2017-10-03T12:22:51.521Z,3.07
2017-10-03T12:25:19.476Z,2.30
2017-10-03T12:27:47.373Z,2.70
2017-10-03T12:30:15.305Z,2.60
2017-10-03T12:32:43.177Z,2.47
2017-10-03T12:35:11.105Z,3.10
2017-10-03T12:37:38.989Z,2.37
2017-10-03T12:40:06.923Z,3.07
2017-10-03T12:42:34.821Z,2.50
2017-10-03T12:45:02.787Z,2.90
2017-10-03T12:47:30.740Z,2.60
2017-10-03T12:49:58.690Z,2.53
2017-10-03T12:52:26.626Z,2.73
2017-10-03T12:54:54.521Z,2.90
2017-10-03T12:57:22.471Z,2.77
2017-10-03T12:59:50.353Z,3.17
2017-10-03T13:02:18.353Z,3.80
2017-10-03T13:04:46.274Z,3.20
2017-10-03T13:07:14.219Z,2.80
2017-10-03T13:09:42.117Z,3.20
2017-10-03T13:12:10.827Z,3.20
2017-10-03T13:14:38.743Z,5.00
2017-10-03T13:17:06.748Z,6.80
2017-10-03T13:19:34.658Z,3.57
2017-10-03T13:22:02.636Z,3.40
2017-10-03T13:24:30.551Z,5.30
2017-10-03T13:27:05.437Z,2.87
2017-10-03T13:29:33.342Z,3.40
2017-10-03T13:32:01.315Z,3.60
2017-10-03T13:34:29.218Z,3.50
2017-10-03T13:37:05.706Z,3.47
2017-10-03T13:39:34.450Z,4.13
2017-10-03T13:42:02.442Z,3.87
2017-10-03T13:44:30.347Z,4.50
2017-10-03T13:46:58.305Z,4.17
2017-10-03T13:49:26.222Z,3.60
2017-10-03T13:51:54.374Z,4.50
2017-10-03T13:54:22.637Z,2.73
2017-10-03T13:56:51.374Z,2.77
2017-10-03T13:59:19.289Z,2.27
2017-10-03T14:01:48.034Z,2.43
2017-10-03T14:04:15.920Z,3.23
2017-10-03T14:06:45.042Z,2.80
2017-10-03T14:09:13.028Z,3.90
2017-10-03T14:11:40.956Z,3.20
2017-10-03T14:14:08.995Z,2.80
2017-10-03T14:16:36.898Z,3.00
2017-10-03T14:19:04.861Z,4.30
2017-10-03T14:21:32.793Z,2.27
2017-10-03T14:24:01.077Z,2.03
2017-10-03T14:26:29.020Z,3.07
2017-10-03T14:28:57.207Z,2.87
2017-10-03T14:31:25.139Z,2.50
2017-10-03T14:33:53.103Z,2.73
2017-10-03T14:36:21.023Z,2.50
2017-10-03T14:38:49.066Z,2.50
2017-10-03T14:41:18.394Z,3.17
2017-10-03T14:43:46.355Z,3.03
2017-10-03T14:46:15.801Z,2.33
2017-10-03T14:48:43.918Z,2.70
2017-10-03T14:51:11.853Z,3.73
2017-10-03T14:53:39.877Z,3.23
2017-10-03T14:56:07.879Z,3.30
2017-10-03T14:58:35.866Z,2.80
2017-10-03T15:01:03.822Z,3.10
2017-10-03T15:03:31.811Z,3.90
2017-10-03T15:05:59.740Z,2.80
2017-10-03T15:08:27.721Z,3.27
2017-10-03T15:10:55.675Z,4.23
2017-10-03T15:13:23.732Z,3.30
2017-10-03T15:15:51.669Z,3.40
2017-10-03T15:18:19.739Z,3.47
2017-10-03T15:20:47.769Z,11.13
2017-10-03T15:23:15.723Z,16.33
2017-10-03T15:25:43.708Z,22.27
2017-10-03T15:28:12.628Z,5.20
2017-10-03T15:30:40.841Z,4.93
2017-10-03T15:33:10.019Z,4.70
2017-10-03T15:35:37.997Z,4.90
2017-10-03T15:38:05.916Z,4.87
2017-10-03T15:40:33.890Z,5.20
2017-10-03T15:43:01.838Z,5.50
2017-10-03T15:45:29.874Z,4.43
2017-10-03T15:47:57.807Z,4.40
2017-10-03T15:50:25.791Z,4.00
2017-10-03T15:52:53.728Z,4.23
2017-10-03T15:55:21.761Z,4.70
2017-10-03T15:57:49.759Z,13.30
2017-10-03T16:00:18.510Z,5.13
2017-10-03T16:02:46.428Z,3.83
2017-10-03T16:05:14.403Z,4.80
2017-10-03T16:07:42.345Z,3.70
2017-10-03T16:10:10.341Z,3.83
2017-10-03T16:12:38.693Z,4.80
2017-10-03T16:15:07.221Z,4.60
2017-10-03T16:17:35.471Z,3.70
2017-10-03T16:20:03.519Z,4.23
2017-10-03T16:22:32.826Z,3.80
2017-10-03T16:25:01.576Z,4.10
2017-10-03T16:27:30.412Z,3.73
2017-10-03T16:29:58.431Z,3.90
2017-10-03T16:32:26.544Z,3.90
2017-10-03T16:34:57.192Z,4.70
2017-10-03T16:37:25.550Z,4.17
2017-10-03T16:39:54.006Z,4.93
2017-10-03T16:42:22.363Z,5.57
2017-10-03T16:44:53.138Z,4.13
2017-10-03T16:47:21.195Z,5.07
2017-10-03T16:49:49.175Z,4.62
2017-10-03T16:52:17.089Z,3.80
2017-10-03T16:54:45.046Z,3.77
2017-10-03T16:57:13.022Z,4.77
2017-10-03T16:59:41.033Z,4.40
2017-10-03T17:02:08.989Z,3.72
2017-10-03T17:04:37.100Z,4.00
2017-10-03T17:07:05.420Z,4.03
2017-10-03T17:09:33.341Z,4.80
2017-10-03T17:12:01.584Z,4.60
2017-10-03T17:14:29.848Z,5.03
2017-10-03T17:16:57.843Z,5.33
2017-10-03T17:19:25.792Z,5.28
2017-10-03T17:21:53.828Z,4.90
2017-10-03T17:24:21.743Z,4.23
2017-10-03T17:26:49.904Z,4.97
2017-10-03T17:29:17.911Z,4.27
2017-10-03T17:31:45.853Z,4.25
2017-10-03T17:34:13.841Z,5.00
2017-10-03T17:36:44.706Z,4.78
2017-10-03T17:39:12.676Z,5.57
2017-10-03T17:41:40.638Z,4.10
2017-10-03T17:44:08.650Z,4.93
2017-10-03T17:46:37.278Z,5.25
2017-10-03T17:49:06.075Z,4.70
2017-10-03T17:51:34.010Z,4.95
2017-10-03T17:54:01.985Z,4.22
2017-10-03T17:56:29.912Z,7.70
2017-10-03T17:58:57.902Z,13.43
2017-10-03T18:01:26.596Z,6.00
2017-10-03T18:03:55.372Z,8.70
2017-10-03T18:06:23.315Z,8.90
2017-10-03T18:08:51.316Z,17.45
2017-10-03T18:11:19.274Z,6.47
2017-10-03T18:13:47.254Z,7.47
2017-10-03T18:16:15.936Z,6.97
2017-10-03T18:18:44.712Z,5.00
2017-10-03T18:21:12.650Z,4.40
2017-10-03T18:23:40.619Z,3.90
2017-10-03T18:26:09.472Z,4.10
2017-10-03T18:28:37.406Z,3.58
2017-10-03T18:31:05.365Z,4.28
2017-10-03T18:33:33.292Z,5.20
2017-10-03T18:36:01.247Z,4.40
2017-10-03T18:38:29.210Z,3.40
2017-10-03T18:40:57.944Z,4.70
2017-10-03T18:43:25.862Z,4.07
2017-10-03T18:45:54.589Z,4.22
2017-10-03T18:48:23.401Z,4.25
2017-10-03T18:50:51.396Z,4.50
2017-10-03T18:53:19.355Z,4.05
2017-10-03T18:55:47.345Z,3.80
2017-10-03T18:58:15.302Z,3.62
2017-10-03T19:00:46.785Z,4.47
2017-10-03T19:03:15.795Z,4.82
2017-10-03T19:05:43.804Z,5.15
2017-10-03T19:08:12.521Z,4.18
2017-10-03T19:10:40.504Z,5.25
2017-10-03T19:13:08.495Z,5.32
2017-10-03T19:15:36.481Z,4.78
2017-10-03T19:18:04.553Z,5.53
2017-10-03T19:20:33.215Z,5.68
2017-10-03T19:23:01.938Z,11.70
2017-10-03T19:25:30.349Z,5.68
2017-10-03T19:27:58.289Z,6.30
2017-10-03T19:30:26.376Z,5.62
2017-10-03T19:32:58.497Z,5.97
2017-10-03T19:35:26.419Z,5.57
2017-10-03T19:37:54.388Z,5.37
2017-10-03T19:40:22.316Z,5.47
2017-10-03T19:42:50.275Z,5.85
2017-10-03T19:45:18.195Z,6.30
2017-10-03T19:47:46.467Z,6.45
2017-10-03T19:50:14.366Z,5.90
2017-10-03T19:52:43.116Z,6.55
2017-10-03T19:55:11.032Z,5.50
2017-10-03T19:57:39.032Z,6.55
2017-10-03T20:00:06.948Z,6.32
2017-10-03T20:02:34.907Z,6.37
2017-10-03T20:05:03.036Z,5.32
2017-10-03T20:07:30.935Z,6.97
2017-10-03T20:09:59.001Z,6.95
2017-10-03T20:12:27.773Z,7.90
2017-10-03T20:14:57.639Z,6.45
2017-10-03T20:17:25.624Z,4.50
2017-10-03T20:19:53.600Z,5.35
2017-10-03T20:22:21.540Z,5.57
2017-10-03T20:24:52.261Z,5.32
2017-10-03T20:27:20.258Z,4.87
2017-10-03T20:29:50.411Z,5.53
2017-10-03T20:32:19.873Z,5.22
2017-10-03T20:34:47.815Z,4.82
2017-10-03T20:37:15.953Z,4.57
2017-10-03T20:39:44.688Z,5.10
2017-10-03T20:42:12.675Z,4.62
2017-10-03T20:44:40.619Z,5.45
2017-10-03T20:47:08.520Z,4.20
2017-10-03T20:49:36.482Z,4.03
2017-10-03T20:52:04.373Z,4.93
2017-10-03T20:54:32.317Z,4.70
2017-10-03T20:57:00.203Z,4.62
2017-10-03T20:59:28.182Z,4.50
2017-10-03T21:01:56.120Z,4.18
2017-10-03T21:04:24.069Z,5.03
2017-10-03T21:06:53.146Z,4.30
2017-10-03T21:09:21.114Z,3.75
2017-10-03T21:11:49.079Z,4.20
2017-10-03T21:14:17.226Z,4.10
2017-10-03T21:16:45.770Z,4.65
2017-10-03T21:19:13.712Z,4.40
2017-10-03T21:21:41.744Z,4.85
2017-10-03T21:24:09.722Z,5.35
2017-10-03T21:26:37.651Z,5.10
2017-10-03T21:29:07.139Z,4.12
2017-10-03T21:31:35.064Z,4.37
2017-10-03T21:34:03.036Z,3.70
2017-10-03T21:36:30.956Z,5.18
2017-10-03T21:38:58.975Z,4.82
2017-10-03T21:41:29.492Z,4.43
2017-10-03T21:43:57.461Z,5.53
2017-10-03T21:46:25.549Z,5.07
2017-10-03T21:48:53.573Z,4.40
2017-10-03T21:51:21.630Z,4.70
2017-10-03T21:53:49.599Z,4.32
2017-10-03T21:56:17.556Z,4.47
2017-10-03T21:58:45.478Z,5.40
2017-10-03T22:01:13.462Z,4.82
2017-10-03T22:03:41.352Z,4.28
2017-10-03T22:06:09.295Z,4.70
2017-10-03T22:08:37.204Z,4.07
2017-10-03T22:11:05.145Z,4.97
2017-10-03T22:13:33.071Z,4.43
2017-10-03T22:16:01.020Z,5.07
2017-10-03T22:18:29.072Z,4.57
2017-10-03T22:20:57.796Z,4.97
2017-10-03T22:23:25.706Z,4.35
2017-10-03T22:25:53.698Z,4.30
2017-10-03T22:28:21.588Z,5.30
2017-10-03T22:30:49.539Z,4.20
2017-10-03T22:33:17.454Z,4.05
2017-10-03T22:35:45.406Z,3.40
2017-10-03T22:38:13.359Z,5.22
2017-10-03T22:40:42.079Z,3.97
2017-10-03T22:43:10.007Z,4.20
2017-10-03T22:45:37.947Z,3.85
2017-10-03T22:48:06.055Z,4.25
2017-10-03T22:50:33.948Z,4.65
2017-10-03T22:53:01.901Z,4.07
2017-10-03T22:55:29.823Z,3.90
2017-10-03T22:57:57.776Z,4.28
2017-10-03T23:00:25.671Z,3.62
2017-10-03T23:02:53.621Z,3.53
2017-10-03T23:05:21.612Z,4.55
2017-10-03T23:07:49.568Z,4.43
2017-10-03T23:10:17.458Z,3.78
2017-10-03T23:12:45.409Z,3.20
2017-10-03T23:15:13.342Z,3.20
2017-10-03T23:17:45.288Z,3.50
2017-10-03T23:20:13.174Z,3.72
2017-10-03T23:22:41.113Z,3.75
2017-10-03T23:25:09.772Z,4.18
2017-10-03T23:27:37.728Z,3.87
2017-10-03T23:30:05.609Z,3.33
2017-10-03T23:32:33.572Z,3.12
2017-10-03T23:35:01.512Z,3.30
2017-10-03T23:37:29.592Z,3.20
2017-10-03T23:39:57.474Z,4.80
2017-10-03T23:42:25.428Z,3.87
2017-10-03T23:44:53.483Z,4.32
2017-10-03T23:47:21.393Z,3.78
2017-10-03T23:49:49.412Z,3.72
2017-10-03T23:52:17.293Z,3.30
2017-10-03T23:54:45.211Z,4.45
2017-10-03T23:57:13.110Z,3.70
2017-10-03T23:59:41.070Z,4.25
